Temp: 0.4°C   Baro: 1011.4mb
  Wind: 0.0mph   Dir: N (352°)
  Rain: 0.0mm (0.0mm/hr)
  Solar: 0W/m2  Hum: 86%

Historic data

Bath Spa Weather Station Historical Data
Daily Summary for October 22, 2021 Units:  Metric    English   Both
Daily Weekly Monthly Yearly Custom
  High: Low: Average:
Temperature: 12.9 °C 3.3 °C 8.9 °C
Dew Point: 8.9 °C 2.6 °C 6.6 °C
Humidity: 93% 72% 83%
Wind Speed: 20.6km/h 0km/h 6km/h
Wind Gust: 35.4km/h - -
Wind- - WNW
Pressure: 1026.3 hPa 1019.9 hPa -
Precipitation: 0 mm    
Historical Graphs
 
 
Tabular Data for October 22, 2021
Time Temperature Dew Point Pressure Wind Wind Speed Wind Gust Humidity Rainfall Rate (Hourly) solar
00:04 4.3 °C 3.3 °C 1020.5 hPa Calm     90% 0 mm 0 W/m2
00:09 4.3 °C 3.3 °C 1020.5 hPa Calm     90% 0 mm 0 W/m2
00:14 4.3 °C 3.3 °C 1020.2 hPa WNW 1.6 km/h 3.2 km/h 90% 0 mm 0 W/m2
00:19 4.3 °C 3.3 °C 1020.5 hPa WNW 1.8 km/h 4.8 km/h 90% 0 mm 0 W/m2
00:24 4.4 °C 3.4 °C 1020.5 hPa WNW 0.3 km/h 3.2 km/h 90% 0 mm 0 W/m2
00:29 4.3 °C 3.3 °C 1020.5 hPa WNW 0.8 km/h 3.2 km/h 90% 0 mm 0 W/m2
00:34 4.3 °C 3.3 °C 1020.5 hPa WNW 0.3 km/h 3.2 km/h 90.2% 0 mm 0 W/m2
00:39 4.4 °C 3.6 °C 1020.5 hPa WNW 0.8 km/h 3.2 km/h 91% 0 mm 0 W/m2
00:44 4.4 °C 3.6 °C 1020.5 hPa Calm   3.2 km/h 91% 0 mm 0 W/m2
00:49 4.4 °C 3.6 °C 1020.5 hPa WNW 0.3 km/h 1.6 km/h 91% 0 mm 0 W/m2
00:54 4.3 °C 3.6 °C 1020.5 hPa Calm   1.6 km/h 91% 0 mm 0 W/m2
00:59 4.3 °C 3.5 °C 1020.5 hPa Calm   1.6 km/h 91% 0 mm 0 W/m2
01:04 4.3 °C 3.5 °C 1020.5 hPa Calm     91% 0 mm 0 W/m2
01:09 4.3 °C 3.5 °C 1020.5 hPa Calm     91% 0 mm 0 W/m2
01:14 4.3 °C 3.5 °C 1020.5 hPa Calm     91% 0 mm 0 W/m2
01:19 4.2 °C 3.4 °C 1020.5 hPa Calm     91% 0 mm 0 W/m2
01:24 4.2 °C 3.3 °C 1020.5 hPa Calm     91% 0 mm 0 W/m2
01:29 4.1 °C 3.3 °C 1020.5 hPa Calm     91% 0 mm 0 W/m2
01:34 4.1 °C 3.3 °C 1020.5 hPa WNW 1.4 km/h 3.2 km/h 91% 0 mm 0 W/m2
01:39 4.1 °C 3.3 °C 1020.5 hPa WNW 0.8 km/h 3.2 km/h 91% 0 mm 0 W/m2
01:44 4.1 °C 3.3 °C 1020.5 hPa Calm   1.6 km/h 91% 0 mm 0 W/m2
01:49 4.1 °C 3.3 °C 1020.5 hPa WNW 0.3 km/h 1.6 km/h 91% 0 mm 0 W/m2
01:54 4.1 °C 3.3 °C 1020.5 hPa Calm   1.6 km/h 91% 0 mm 0 W/m2
01:59 4 °C 3.2 °C 1020.5 hPa Calm     91% 0 mm 0 W/m2
02:04 4 °C 3.3 °C 1020.5 hPa Calm     92% 0 mm 0 W/m2
02:09 4 °C 3.3 °C 1020.5 hPa Calm     92% 0 mm 0 W/m2
02:14 3.9 °C 3.2 °C 1020.5 hPa WNW 1.4 km/h 3.2 km/h 92% 0 mm 0 W/m2
02:19 3.9 °C 3.2 °C 1020.5 hPa WNW 1.3 km/h 3.2 km/h 91.6% 0 mm 0 W/m2
02:24 3.8 °C 3.2 °C 1020.5 hPa Calm     92% 0 mm 0 W/m2
02:29 3.8 °C 3.1 °C 1020.5 hPa WNW 1.3 km/h 3.2 km/h 92% 0 mm 0 W/m2
02:34 3.8 °C 3.1 °C 1020.5 hPa WNW 1.4 km/h 3.2 km/h 92% 0 mm 0 W/m2
02:39 3.8 °C 3.1 °C 1020.5 hPa Calm   3.2 km/h 92% 0 mm 0 W/m2
02:44 3.8 °C 3.1 °C 1020.5 hPa Calm   1.6 km/h 92% 0 mm 0 W/m2
02:49 3.7 °C 3 °C 1020.5 hPa Calm   1.6 km/h 92% 0 mm 0 W/m2
02:54 3.6 °C 2.9 °C 1020.5 hPa Calm   1.6 km/h 92% 0 mm 0 W/m2
02:59 3.6 °C 2.9 °C 1020.5 hPa WNW 0.3 km/h 3.2 km/h 92% 0 mm 0 W/m2
03:04 3.7 °C 2.9 °C 1020.5 hPa WNW 1.9 km/h 3.2 km/h 92% 0 mm 0 W/m2
03:09 3.7 °C 3 °C 1020.5 hPa Calm   1.6 km/h 92% 0 mm 0 W/m2
03:14 3.7 °C 3 °C 1020.5 hPa Calm     92% 0 mm 0 W/m2
03:19 3.7 °C 2.9 °C 1020.5 hPa Calm     92% 0 mm 0 W/m2
03:24 3.5 °C 2.8 °C 1020.5 hPa WNW 1.3 km/h 3.2 km/h 92% 0 mm 0 W/m2
03:29 3.4 °C 2.7 °C 1020.5 hPa WNW 0.8 km/h 3.2 km/h 92% 0 mm 0 W/m2
03:34 3.4 °C 2.7 °C 1020.5 hPa WNW 0.3 km/h 1.6 km/h 92% 0 mm 0 W/m2
03:39 3.3 °C 2.6 °C 1020.2 hPa WNW 0.6 km/h 3.2 km/h 92% 0 mm 0 W/m2
03:44 3.4 °C 2.7 °C 1020.2 hPa WNW 0.8 km/h 3.2 km/h 92% 0 mm 0 W/m2
03:49 3.4 °C 2.7 °C 1020.2 hPa Calm     92% 0 mm 0 W/m2
03:54 3.4 °C 2.8 °C 1020.2 hPa Calm   1.6 km/h 92.2% 0 mm 0 W/m2
03:59 3.5 °C 3 °C 1020.2 hPa Calm     93% 0 mm 0 W/m2
04:04 3.5 °C 3 °C 1020.2 hPa WNW 1 km/h 3.2 km/h 93% 0 mm 0 W/m2
04:09 3.5 °C 3 °C 1020.2 hPa WNW 0.3 km/h 3.2 km/h 93% 0 mm 0 W/m2
04:14 3.4 °C 2.9 °C 1020.2 hPa WNW 0.8 km/h 3.2 km/h 92.6% 0 mm 0 W/m2
04:19 3.5 °C 3 °C 1020.2 hPa WNW 2.4 km/h 6.4 km/h 93% 0 mm 0 W/m2
04:24 3.7 °C 3.2 °C 1020.2 hPa WNW 0.3 km/h 4.8 km/h 93% 0 mm 0 W/m2
04:29 3.7 °C 3.2 °C 1020.2 hPa WNW 0.8 km/h 1.6 km/h 93% 0 mm 0 W/m2
04:34 3.7 °C 3.2 °C 1020.2 hPa WNW 0.3 km/h 1.6 km/h 93% 0 mm 0 W/m2
04:39 3.6 °C 3.1 °C 1020.2 hPa Calm     93% 0 mm 0 W/m2
04:44 3.6 °C 3.1 °C 1020.2 hPa Calm     93% 0 mm 0 W/m2
04:49 3.5 °C 3 °C 1019.9 hPa Calm     93% 0 mm 0 W/m2
04:54 3.4 °C 2.9 °C 1020.2 hPa Calm   1.6 km/h 93% 0 mm 0 W/m2
04:59 3.4 °C 2.9 °C 1020.2 hPa Calm     93% 0 mm 0 W/m2
05:04 3.3 °C 2.8 °C 1020.2 hPa WNW 0.6 km/h 3.2 km/h 93% 0 mm 0 W/m2
05:09 3.5 °C 3 °C 1020.2 hPa WNW 0.6 km/h 3.2 km/h 93% 0 mm 0 W/m2
05:14 3.5 °C 3 °C 1020.2 hPa Calm   1.6 km/h 93% 0 mm 0 W/m2
05:19 3.4 °C 2.9 °C 1020.2 hPa Calm     93% 0 mm 0 W/m2
05:24 3.4 °C 2.9 °C 1020.2 hPa Calm     93% 0 mm 0 W/m2
05:29 3.4 °C 2.9 °C 1020.2 hPa Calm     93% 0 mm 0 W/m2
05:34 3.3 °C 2.8 °C 1020.2 hPa Calm     93% 0 mm 0 W/m2
05:39 3.3 °C 2.8 °C 1020.5 hPa WNW 1.6 km/h 4.8 km/h 93% 0 mm 0 W/m2
05:44 3.7 °C 3.2 °C 1020.5 hPa WNW 3.2 km/h 6.4 km/h 93% 0 mm 0 W/m2
05:49 4.2 °C 3.7 °C 1020.5 hPa WNW 4 km/h 6.4 km/h 93% 0 mm 0 W/m2
05:54 4.3 °C 3.8 °C 1020.5 hPa WNW 2.7 km/h 6.4 km/h 93% 0 mm 0 W/m2
05:59 4.3 °C 3.8 °C 1020.5 hPa WNW 3.5 km/h 8 km/h 93% 0 mm 0 W/m2
06:04 4.5 °C 4 °C 1020.5 hPa WNW 5 km/h 8 km/h 93% 0 mm 0 W/m2
06:09 4.8 °C 4.3 °C 1020.5 hPa WNW 4.7 km/h 6.4 km/h 93% 0 mm 0 W/m2
06:14 4.9 °C 4.4 °C 1020.5 hPa WNW 4.5 km/h 8 km/h 93% 0 mm 0 W/m2
06:19 5.2 °C 4.7 °C 1020.5 hPa WNW 4.7 km/h 9.7 km/h 93% 0 mm 0 W/m2
06:24 5.4 °C 4.9 °C 1020.5 hPa WNW 5.8 km/h 9.7 km/h 93% 0 mm 0 W/m2
06:29 5.7 °C 5.2 °C 1020.5 hPa WNW 5.8 km/h 9.7 km/h 93% 0 mm 0 W/m2
06:34 5.7 °C 5.1 °C 1020.5 hPa WNW 5.1 km/h 9.7 km/h 92.4% 0 mm 0 W/m2
06:39 5.7 °C 5.1 °C 1020.5 hPa WNW 5 km/h 9.7 km/h 92% 0 mm 0 W/m2
06:44 5.9 °C 5.2 °C 1020.5 hPa WNW 6.6 km/h 11.3 km/h 92% 0 mm 0 W/m2
06:49 6.2 °C 5.2 °C 1020.5 hPa WNW 5.8 km/h 12.9 km/h 91% 0 mm 0 W/m2
06:54 6.4 °C 5.4 °C 1020.5 hPa WNW 7.2 km/h 12.9 km/h 90.2% 0 mm 0 W/m2
06:59 6.6 °C 5.4 °C 1020.5 hPa WNW 5.3 km/h 12.9 km/h 89.2% 0 mm 0 W/m2
07:04 6.7 °C 5.3 °C 1020.5 hPa WNW 6.1 km/h 14.5 km/h 88.2% 0 mm 0 W/m2
07:09 6.8 °C 5.3 °C 1020.5 hPa WNW 7.7 km/h 16.1 km/h 87.2% 0 mm 0 W/m2
07:14 7.1 °C 5.3 °C 1020.5 hPa WNW 10.6 km/h 14.5 km/h 85.8% 0 mm 0 W/m2
07:19 7.3 °C 5.3 °C 1020.5 hPa WNW 9.7 km/h 14.5 km/h 84.6% 0 mm 0 W/m2
07:24 7.4 °C 5.4 °C 1020.5 hPa WNW 11.3 km/h 16.1 km/h 84% 0 mm 0 W/m2
07:29 7.5 °C 5.3 °C 1020.5 hPa WNW 10.3 km/h 16.1 km/h 83% 0 mm 0 W/m2
07:34 7.6 °C 5.3 °C 1020.5 hPa WNW 7.7 km/h 14.5 km/h 82.8% 0 mm 0 W/m2
07:39 7.6 °C 5.2 °C 1020.5 hPa WNW 5.8 km/h 11.3 km/h 82% 0 mm 0 W/m2
07:44 7.6 °C 5.2 °C 1020.5 hPa WNW 6.4 km/h 11.3 km/h 82% 0 mm 0 W/m2
07:49 7.7 °C 5.3 °C 1020.9 hPa WNW 8 km/h 12.9 km/h 82% 0 mm 0 W/m2
07:54 7.8 °C 5.3 °C 1020.9 hPa WNW 6 km/h 11.3 km/h 82% 0 mm 5 W/m2
07:59 7.8 °C 5.4 °C 1020.9 hPa WNW 4.7 km/h 11.3 km/h 82% 0 mm 7 W/m2
08:03 7.8 °C 5.4 °C 1020.9 hPa WNW 6.4 km/h 12.9 km/h 82% 0 mm 7 W/m2
08:09 7.9 °C 5.4 °C 1020.9 hPa WNW 4 km/h 8 km/h 81.4% 0 mm 9 W/m2
08:14 7.9 °C 5.3 °C 1020.9 hPa WNW 4.5 km/h 9.7 km/h 81% 0 mm 14 W/m2
08:19 7.9 °C 5.4 °C 1020.9 hPa WNW 4.8 km/h 16.1 km/h 81.8% 0 mm 23 W/m2
08:24 7.9 °C 5.6 °C 1020.9 hPa WNW 4.7 km/h 16.1 km/h 82% 0 mm 33 W/m2
08:29 8.2 °C 5.8 °C 1020.9 hPa WNW 7.6 km/h 12.9 km/h 82% 0 mm 33 W/m2
08:34 8.4 °C 5.9 °C 1021.2 hPa WNW 7.7 km/h 16.1 km/h 81.2% 0 mm 28 W/m2
08:39 8.7 °C 6 °C 1021.2 hPa WNW 8 km/h 16.1 km/h 80.4% 0 mm 33 W/m2
08:44 8.9 °C 6.1 °C 1021.2 hPa WNW 9.8 km/h 17.7 km/h 80% 0 mm 39 W/m2
08:48 9.1 °C 6.1 °C 1021.2 hPa WNW 12.4 km/h 22.5 km/h 79.3% 0 mm 54 W/m2
08:54 9.3 °C 6.3 °C 1021.2 hPa WNW 11.3 km/h 22.5 km/h 79.2% 0 mm 56 W/m2
08:59 9.3 °C 6.3 °C 1021.2 hPa WNW 12.9 km/h 24.1 km/h 79% 0 mm 62 W/m2
09:04 9.4 °C 6.4 °C 1021.2 hPa WNW 8 km/h 20.9 km/h 79% 0 mm 65 W/m2
09:09 9.4 °C 6.4 °C 1021.6 hPa WNW 10.3 km/h 19.3 km/h 79% 0 mm 62 W/m2
09:14 9.4 °C 6.4 °C 1021.6 hPa WNW 9.7 km/h 17.7 km/h 79% 0 mm 100 W/m2
09:18 9.5 °C 6.6 °C 1021.6 hPa WNW 6.9 km/h 14.5 km/h 79.3% 0 mm 98 W/m2
09:24 9.5 °C 6.7 °C 1021.6 hPa WNW 10.3 km/h 19.3 km/h 80% 0 mm 91 W/m2
09:29 9.6 °C 6.8 °C 1021.9 hPa WNW 10.3 km/h 20.9 km/h 80% 0 mm 132 W/m2
09:34 9.8 °C 6.9 °C 1021.9 hPa WNW 13.2 km/h 19.3 km/h 80% 0 mm 132 W/m2
09:39 9.8 °C 7.1 °C 1021.9 hPa WNW 10.6 km/h 19.3 km/h 80% 0 mm 160 W/m2
09:44 9.9 °C 7.2 °C 1021.9 hPa West 12.4 km/h 22.5 km/h 80% 0 mm 163 W/m2
09:49 10.1 °C 7.3 °C 1022.2 hPa WNW 12.9 km/h 25.7 km/h 80% 0 mm 160 W/m2
09:54 10.1 °C 7.3 °C 1022.2 hPa WNW 14.5 km/h 29 km/h 80% 0 mm 139 W/m2
09:59 10.2 °C 7.4 °C 1022.2 hPa WNW 12.6 km/h 24.1 km/h 80% 0 mm 272 W/m2
10:04 10.3 °C 7.6 °C 1022.2 hPa WNW 12.2 km/h 24.1 km/h 80% 0 mm 304 W/m2
10:08 10.6 °C 7.6 °C 1022.2 hPa WNW 10 km/h 25.7 km/h 79% 0 mm 181 W/m2
10:14 10.4 °C 7.4 °C 1022.2 hPa WNW 15.1 km/h 27.4 km/h 79% 0 mm 146 W/m2
10:19 10.4 °C 7.4 °C 1022.6 hPa WNW 11.6 km/h 22.5 km/h 79% 0 mm 104 W/m2
10:24 10.3 °C 7.3 °C 1022.6 hPa WNW 13.2 km/h 20.9 km/h 79% 0 mm 111 W/m2
10:29 10.3 °C 7.5 °C 1022.6 hPa WNW 15.3 km/h 24.1 km/h 80% 0 mm 118 W/m2
10:34 10.3 °C 7.5 °C 1022.2 hPa West 12.6 km/h 24.1 km/h 80% 0 mm 223 W/m2
10:39 10.3 °C 7.4 °C 1022.6 hPa West 17.1 km/h 25.7 km/h 79.6% 0 mm 253 W/m2
10:44 10.6 °C 7.6 °C 1022.6 hPa WNW 11.3 km/h 25.7 km/h 79% 0 mm 258 W/m2
10:49 10.8 °C 7.7 °C 1022.6 hPa WNW 11.4 km/h 24.1 km/h 78.6% 0 mm 309 W/m2
10:54 10.9 °C 7.7 °C 1022.6 hPa West 15.8 km/h 25.7 km/h 78% 0 mm 320 W/m2
10:59 11 °C 7.6 °C 1022.6 hPa WNW 15.6 km/h 29 km/h 77.3% 0 mm 329 W/m2
11:04 11.1 °C 7.7 °C 1022.6 hPa West 15.1 km/h 27.4 km/h 77% 0 mm 332 W/m2
11:09 11.2 °C 8 °C 1022.6 hPa WNW 11.9 km/h 24.1 km/h 77.8% 0 mm 345 W/m2
11:14 11.3 °C 7.9 °C 1022.6 hPa WNW 15.3 km/h 27.4 km/h 77% 0 mm 350 W/m2
11:19 11.4 °C 8.1 °C 1022.2 hPa WNW 11.6 km/h 22.5 km/h 77% 0 mm 353 W/m2
11:24 11.5 °C 8.1 °C 1022.2 hPa WNW 11.6 km/h 27.4 km/h 77% 0 mm 366 W/m2
11:29 11.6 °C 8.2 °C 1022.2 hPa WNW 13.5 km/h 27.4 km/h 77% 0 mm 381 W/m2
11:34 11.7 °C 8.3 °C 1022.6 hPa WNW 11.6 km/h 27.4 km/h 77% 0 mm 387 W/m2
11:39 11.9 °C 8.2 °C 1022.6 hPa WNW 14.3 km/h 27.4 km/h 75.6% 0 mm 397 W/m2
11:44 11.9 °C 8 °C 1022.6 hPa WNW 17.1 km/h 27.4 km/h 74.4% 0 mm 408 W/m2
11:49 12.1 °C 8.1 °C 1022.6 hPa WNW 16.1 km/h 25.7 km/h 74% 0 mm 411 W/m2
11:54 12.1 °C 8.1 °C 1022.6 hPa WNW 20.1 km/h 35.4 km/h 74% 0 mm 443 W/m2
11:58 12.1 °C 8 °C 1022.6 hPa West 20.6 km/h 30.6 km/h 73.8% 0 mm 438 W/m2
12:04 12.3 °C 8.3 °C 1022.6 hPa WNW 13.2 km/h 27.4 km/h 74% 0 mm 533 W/m2
12:09 12.4 °C 8.3 °C 1022.9 hPa WNW 16.7 km/h 30.6 km/h 73.4% 0 mm 610 W/m2
12:14 12.3 °C 8.3 °C 1022.9 hPa WNW 20.6 km/h 27.4 km/h 74% 0 mm 353 W/m2
12:19 12.1 °C 8.1 °C 1022.9 hPa WNW 15.8 km/h 33.8 km/h 74% 0 mm 218 W/m2
12:24 11.9 °C 7.9 °C 1022.9 hPa NW 18.7 km/h 30.6 km/h 74% 0 mm 613 W/m2
12:29 12.2 °C 8.2 °C 1022.9 hPa WNW 16.4 km/h 25.7 km/h 74.2% 0 mm 613 W/m2
12:34 12.2 °C 8.2 °C 1022.9 hPa WNW 12.6 km/h 25.7 km/h 74.4% 0 mm 244 W/m2
12:38 12.2 °C 8.4 °C 1022.9 hPa West 12.1 km/h 25.7 km/h 75% 0 mm 209 W/m2
12:44 12.2 °C 8.4 °C 1022.9 hPa NW 8.7 km/h 20.9 km/h 75% 0 mm 178 W/m2
12:49 12.2 °C 8.2 °C 1022.9 hPa WNW 15.4 km/h 22.5 km/h 74.4% 0 mm 155 W/m2
12:54 12 °C 7.9 °C 1023.2 hPa WNW 18 km/h 30.6 km/h 73.4% 0 mm 155 W/m2
12:59 11.9 °C 7.9 °C 1023.2 hPa WNW 12.1 km/h 27.4 km/h 74% 0 mm 132 W/m2
13:04 11.8 °C 7.8 °C 1023.2 hPa WNW 13.5 km/h 30.6 km/h 74% 0 mm 195 W/m2
13:09 11.8 °C 7.8 °C 1023.2 hPa WNW 15.8 km/h 25.7 km/h 74% 0 mm 172 W/m2
13:14 11.9 °C 7.9 °C 1023.2 hPa WNW 11.3 km/h 27.4 km/h 74% 0 mm 179 W/m2
13:19 11.9 °C 7.9 °C 1023.2 hPa WNW 14.5 km/h 25.7 km/h 74% 0 mm 127 W/m2
13:24 11.9 °C 7.9 °C 1023.2 hPa WNW 9.3 km/h 24.1 km/h 74% 0 mm 146 W/m2
13:29 11.9 °C 7.9 °C 1023.2 hPa WNW 12.2 km/h 22.5 km/h 74% 0 mm 206 W/m2
13:34 12.1 °C 8.1 °C 1022.9 hPa WNW 9.3 km/h 22.5 km/h 74% 0 mm 192 W/m2
13:39 12.2 °C 8.2 °C 1022.9 hPa West 12.1 km/h 20.9 km/h 74% 0 mm 167 W/m2
13:44 12.1 °C 8.1 °C 1022.9 hPa WNW 10 km/h 22.5 km/h 74% 0 mm 153 W/m2
13:49 12.1 °C 8.1 °C 1023.2 hPa WNW 9.3 km/h 19.3 km/h 74% 0 mm 135 W/m2
13:54 12.1 °C 8.1 °C 1023.2 hPa WNW 14.2 km/h 27.4 km/h 74% 0 mm 130 W/m2
13:59 12.1 °C 8.1 °C 1023.2 hPa WNW 12.1 km/h 17.7 km/h 74% 0 mm 169 W/m2
14:04 12.2 °C 8.2 °C 1023.2 hPa WNW 8.7 km/h 25.7 km/h 74% 0 mm 221 W/m2
14:09 12.3 °C 8.3 °C 1023.2 hPa WNW 11.6 km/h 19.3 km/h 74% 0 mm 172 W/m2
14:14 12.2 °C 8.1 °C 1023.2 hPa West 14.2 km/h 25.7 km/h 73.4% 0 mm 135 W/m2
14:19 12.2 °C 8.2 °C 1023.2 hPa WNW 9 km/h 20.9 km/h 74% 0 mm 102 W/m2
14:24 12.2 °C 8.2 °C 1023.2 hPa WNW 9.3 km/h 19.3 km/h 74% 0 mm 100 W/m2
14:29 12.2 °C 8.2 °C 1023.2 hPa WNW 10.3 km/h 25.7 km/h 74% 0 mm 199 W/m2
14:34 12.3 °C 8.3 °C 1023.2 hPa WNW 8.5 km/h 17.7 km/h 74% 0 mm 431 W/m2
14:39 12.8 °C 8.7 °C 1023.2 hPa WNW 11.6 km/h 24.1 km/h 73.6% 0 mm 566 W/m2
14:43 12.8 °C 8.4 °C 1023.2 hPa WNW 10.5 km/h 24.1 km/h 72.3% 0 mm 223 W/m2
14:49 12.7 °C 8.3 °C 1023.2 hPa WNW 8 km/h 19.3 km/h 72% 0 mm 309 W/m2
14:54 12.7 °C 8.5 °C 1023.2 hPa WNW 10.1 km/h 22.5 km/h 72.8% 0 mm 503 W/m2
14:59 12.8 °C 8.6 °C 1023.2 hPa West 11.1 km/h 20.9 km/h 73% 0 mm 221 W/m2
15:04 12.8 °C 8.5 °C 1023.2 hPa West 11.6 km/h 24.1 km/h 72.6% 0 mm 186 W/m2
15:09 12.7 °C 8.4 °C 1023.2 hPa West 10.9 km/h 20.9 km/h 72.8% 0 mm 199 W/m2
15:14 12.7 °C 8.4 °C 1023.2 hPa West 11.9 km/h 22.5 km/h 72.8% 0 mm 209 W/m2
15:19 12.7 °C 8.5 °C 1023.2 hPa West 13.8 km/h 24.1 km/h 73% 0 mm 448 W/m2
15:24 12.8 °C 8.6 °C 1023.2 hPa WNW 10.3 km/h 20.9 km/h 73% 0 mm 211 W/m2
15:29 12.7 °C 8.4 °C 1023.2 hPa WNW 15.8 km/h 24.1 km/h 72.4% 0 mm 292 W/m2
15:34 12.8 °C 8.4 °C 1023.6 hPa WNW 12.2 km/h 24.1 km/h 72.2% 0 mm 156 W/m2
15:39 12.7 °C 8.4 °C 1023.2 hPa WNW 10.6 km/h 27.4 km/h 73% 0 mm 156 W/m2
15:44 12.6 °C 8.4 °C 1023.2 hPa West 10 km/h 20.9 km/h 73% 0 mm 155 W/m2
15:49 12.6 °C 8.6 °C 1023.2 hPa West 7.9 km/h 16.1 km/h 74% 0 mm 169 W/m2
15:54 12.6 °C 8.6 °C 1023.2 hPa West 6.8 km/h 12.9 km/h 74% 0 mm 272 W/m2
15:59 12.7 °C 8.7 °C 1023.2 hPa West 7.7 km/h 22.5 km/h 74% 0 mm 304 W/m2
16:03 12.8 °C 8.7 °C 1023.2 hPa West 12.9 km/h 22.5 km/h 73.8% 0 mm 290 W/m2
16:09 12.7 °C 8.6 °C 1023.2 hPa WNW 10.3 km/h 20.9 km/h 73% 0 mm 255 W/m2
16:14 12.8 °C 8.7 °C 1023.2 hPa WNW 8.7 km/h 19.3 km/h 73.4% 0 mm 279 W/m2
16:19 12.8 °C 8.8 °C 1023.6 hPa West 10.5 km/h 19.3 km/h 74% 0 mm 287 W/m2
16:24 12.8 °C 8.8 °C 1023.2 hPa West 11.9 km/h 19.3 km/h 74% 0 mm 269 W/m2
16:29 12.8 °C 8.8 °C 1023.6 hPa WNW 11.6 km/h 17.7 km/h 74% 0 mm 260 W/m2
16:34 12.9 °C 8.9 °C 1023.6 hPa WNW 9.2 km/h 16.1 km/h 74% 0 mm 218 W/m2
16:39 12.8 °C 8.8 °C 1023.6 hPa WNW 10.5 km/h 20.9 km/h 74% 0 mm 211 W/m2
16:44 12.6 °C 8.6 °C 1023.6 hPa WNW 12.6 km/h 22.5 km/h 74% 0 mm 185 W/m2
16:49 12.4 °C 8.5 °C 1023.6 hPa WNW 10.8 km/h 17.7 km/h 74.6% 0 mm 72 W/m2
16:54 12.2 °C 8.4 °C 1023.6 hPa WNW 14.2 km/h 22.5 km/h 75.2% 0 mm 84 W/m2
16:59 12.1 °C 8.5 °C 1023.6 hPa WNW 10 km/h 19.3 km/h 76% 0 mm 118 W/m2
17:04 12.1 °C 8.7 °C 1023.6 hPa WNW 9.7 km/h 17.7 km/h 76.8% 0 mm 118 W/m2
17:09 12.2 °C 8.7 °C 1023.6 hPa WNW 6.3 km/h 14.5 km/h 77% 0 mm 81 W/m2
17:14 12.1 °C 8.7 °C 1023.6 hPa WNW 6.3 km/h 14.5 km/h 77% 0 mm 49 W/m2
17:19 11.9 °C 8.5 °C 1023.6 hPa WNW 8.7 km/h 12.9 km/h 77% 0 mm 39 W/m2
17:24 11.8 °C 8.6 °C 1023.6 hPa WNW 9 km/h 12.9 km/h 77.8% 0 mm 25 W/m2
17:29 11.7 °C 8.5 °C 1023.6 hPa WNW 4.8 km/h 12.9 km/h 78% 0 mm 18 W/m2
17:34 11.6 °C 8.5 °C 1023.6 hPa WNW 6.6 km/h 9.7 km/h 78.4% 0 mm 18 W/m2
17:39 11.6 °C 8.6 °C 1023.6 hPa WNW 7.4 km/h 12.9 km/h 79% 0 mm 12 W/m2
17:44 11.4 °C 8.4 °C 1023.9 hPa WNW 5.3 km/h 11.3 km/h 79% 0 mm 7 W/m2
17:49 11.4 °C 8.4 °C 1023.9 hPa WNW 2.9 km/h 6.4 km/h 79% 0 mm 9 W/m2
17:54 11.4 °C 8.4 °C 1023.9 hPa WNW 2.9 km/h 6.4 km/h 79% 0 mm 7 W/m2
17:59 11.4 °C 8.4 °C 1023.9 hPa WNW 1.3 km/h 4.8 km/h 79% 0 mm 5 W/m2
18:04 11.3 °C 8.5 °C 1023.9 hPa WNW 3.9 km/h 6.4 km/h 79.6% 0 mm 0 W/m2
18:09 11.2 °C 8.4 °C 1023.9 hPa WNW 3.9 km/h 9.7 km/h 80% 0 mm 0 W/m2
18:14 11.2 °C 8.4 °C 1023.9 hPa WNW 2.4 km/h 6.4 km/h 80% 0 mm 0 W/m2
18:19 11.2 °C 8.4 °C 1023.9 hPa WNW 3.7 km/h 8 km/h 80% 0 mm 0 W/m2
18:24 11.1 °C 8.3 °C 1024.3 hPa WNW 3.1 km/h 8 km/h 80% 0 mm 0 W/m2
18:29 11.1 °C 8.3 °C 1024.3 hPa WNW 2.1 km/h 6.4 km/h 80% 0 mm 0 W/m2
18:34 11.1 °C 8.3 °C 1024.3 hPa WNW 1.9 km/h 3.2 km/h 80% 0 mm 0 W/m2
18:39 11.1 °C 8.3 °C 1024.3 hPa WNW 2.6 km/h 4.8 km/h 80.2% 0 mm 0 W/m2
18:44 11.2 °C 8.5 °C 1024.3 hPa WNW 2.7 km/h 4.8 km/h 81% 0 mm 0 W/m2
18:49 11.2 °C 8.4 °C 1024.3 hPa WNW 2.7 km/h 6.4 km/h 80.8% 0 mm 0 W/m2
18:54 11.1 °C 8.5 °C 1024.3 hPa WNW 2.9 km/h 4.8 km/h 81% 0 mm 0 W/m2
18:59 11.1 °C 8.5 °C 1024.6 hPa WNW 3.2 km/h 6.4 km/h 81% 0 mm 0 W/m2
19:04 11 °C 8.4 °C 1024.6 hPa WNW 2.9 km/h 4.8 km/h 81% 0 mm 0 W/m2
19:09 10.9 °C 8.3 °C 1024.6 hPa WNW 2.9 km/h 6.4 km/h 81% 0 mm 0 W/m2
19:14 10.9 °C 8.4 °C 1024.9 hPa WNW 3.9 km/h 6.4 km/h 82% 0 mm 0 W/m2
19:19 10.9 °C 8.4 °C 1024.9 hPa WNW 4 km/h 8 km/h 82% 0 mm 0 W/m2
19:24 10.8 °C 8.3 °C 1024.9 hPa WNW 1.4 km/h 4.8 km/h 82% 0 mm 0 W/m2
19:29 10.8 °C 8.3 °C 1024.9 hPa WNW 3.9 km/h 8 km/h 82% 0 mm 0 W/m2
19:34 10.8 °C 8.3 °C 1024.9 hPa WNW 3.5 km/h 8 km/h 82% 0 mm 0 W/m2
19:39 10.8 °C 8.3 °C 1024.9 hPa WNW 4 km/h 8 km/h 82% 0 mm 0 W/m2
19:44 10.8 °C 8.3 °C 1024.9 hPa WNW 4 km/h 6.4 km/h 82% 0 mm 0 W/m2
19:49 10.7 °C 8.2 °C 1024.9 hPa WNW 3.9 km/h 6.4 km/h 82% 0 mm 0 W/m2
19:54 10.7 °C 8.2 °C 1025.3 hPa WNW 4.5 km/h 6.4 km/h 82% 0 mm 0 W/m2
19:59 10.7 °C 8.2 °C 1025.3 hPa WNW 5.8 km/h 9.7 km/h 82% 0 mm 0 W/m2
20:04 10.7 °C 8.2 °C 1025.3 hPa WNW 5 km/h 9.7 km/h 82% 0 mm 0 W/m2
20:09 10.7 °C 8.2 °C 1025.3 hPa WNW 3.5 km/h 8 km/h 82% 0 mm 0 W/m2
20:14 10.7 °C 8.2 °C 1025.3 hPa WNW 4.7 km/h 8 km/h 82% 0 mm 0 W/m2
20:19 10.7 °C 8.2 °C 1025.3 hPa WNW 4.5 km/h 6.4 km/h 82% 0 mm 0 W/m2
20:24 10.6 °C 8.1 °C 1025.3 hPa WNW 4.5 km/h 6.4 km/h 82% 0 mm 0 W/m2
20:29 10.6 °C 8.1 °C 1025.3 hPa WNW 4 km/h 6.4 km/h 82% 0 mm 0 W/m2
20:34 10.6 °C 8.1 °C 1025.3 hPa WNW 4.3 km/h 8 km/h 82% 0 mm 0 W/m2
20:39 10.5 °C 8.2 °C 1025.3 hPa WNW 3.4 km/h 6.4 km/h 83% 0 mm 0 W/m2
20:44 10.4 °C 8.1 °C 1025.3 hPa WNW 2.1 km/h 4.8 km/h 83% 0 mm 0 W/m2
20:49 10.4 °C 8.1 °C 1025.3 hPa WNW 2.9 km/h 3.2 km/h 83% 0 mm 0 W/m2
20:54 10.4 °C 8.1 °C 1025.3 hPa WNW 2.6 km/h 6.4 km/h 83% 0 mm 0 W/m2
20:59 10.4 °C 8.1 °C 1025.3 hPa WNW 2.7 km/h 8 km/h 83% 0 mm 0 W/m2
21:04 10.3 °C 8.1 °C 1025.6 hPa WNW 1.3 km/h 4.8 km/h 83% 0 mm 0 W/m2
21:09 10.3 °C 8.1 °C 1025.6 hPa WNW 2.6 km/h 4.8 km/h 83.4% 0 mm 0 W/m2
21:14 10.3 °C 8 °C 1025.6 hPa WNW 1.3 km/h 4.8 km/h 83% 0 mm 0 W/m2
21:18 10.3 °C 8.2 °C 1025.6 hPa WNW 1.4 km/h 3.2 km/h 84% 0 mm 0 W/m2
21:24 10.3 °C 8.2 °C 1025.6 hPa WNW 0.3 km/h 3.2 km/h 84% 0 mm 0 W/m2
21:29 10.3 °C 8.2 °C 1025.6 hPa Calm   1.6 km/h 84% 0 mm 0 W/m2
21:34 10.3 °C 8.2 °C 1025.6 hPa WNW 0.6 km/h 3.2 km/h 84% 0 mm 0 W/m2
21:39 10.3 °C 8.2 °C 1025.6 hPa WNW 0.6 km/h 3.2 km/h 84% 0 mm 0 W/m2
21:44 10.3 °C 8.2 °C 1025.6 hPa Calm     84% 0 mm 0 W/m2
21:49 10.3 °C 8.2 °C 1026 hPa Calm     84% 0 mm 0 W/m2
21:54 10.3 °C 8.2 °C 1026 hPa Calm   1.6 km/h 84% 0 mm 0 W/m2
21:59 10.3 °C 8.3 °C 1026 hPa WNW 0.3 km/h 3.2 km/h 84.6% 0 mm 0 W/m2
22:04 10.2 °C 8.3 °C 1026 hPa Calm   1.6 km/h 85% 0 mm 0 W/m2
22:09 10.2 °C 8.3 °C 1026 hPa WNW 0.3 km/h 3.2 km/h 85% 0 mm 0 W/m2
22:14 10.2 °C 8.3 °C 1026 hPa WNW 0.8 km/h 3.2 km/h 85% 0 mm 0 W/m2
22:19 10.1 °C 8.2 °C 1026 hPa Calm   1.6 km/h 85% 0 mm 0 W/m2
22:24 10.1 °C 8.2 °C 1026 hPa Calm     85% 0 mm 0 W/m2
22:29 10.2 °C 8.3 °C 1026 hPa Calm     85% 0 mm 0 W/m2
22:34 10.2 °C 8.3 °C 1026 hPa WNW 1.4 km/h 3.2 km/h 85.2% 0 mm 0 W/m2
22:39 10.2 °C 8.5 °C 1026 hPa WNW 1.1 km/h 3.2 km/h 86% 0 mm 0 W/m2
22:44 10.1 °C 8.4 °C 1026 hPa WNW 0.3 km/h 3.2 km/h 86% 0 mm 0 W/m2
22:49 10.1 °C 8.4 °C 1026 hPa WNW 1.9 km/h 3.2 km/h 86% 0 mm 0 W/m2
22:54 10.1 °C 8.3 °C 1026 hPa Calm     86% 0 mm 0 W/m2
22:59 10.1 °C 8.4 °C 1026 hPa WNW 2.3 km/h 4.8 km/h 86% 0 mm 0 W/m2
23:04 10 °C 8.3 °C 1026 hPa WNW 0.8 km/h 3.2 km/h 86% 0 mm 0 W/m2
23:09 9.9 °C 8.3 °C 1026 hPa WNW 1 km/h 3.2 km/h 87% 0 mm 0 W/m2
23:14 9.9 °C 8.3 °C 1026 hPa WNW 1.8 km/h 4.8 km/h 87% 0 mm 0 W/m2
23:19 9.8 °C 8.2 °C 1026 hPa WNW 0.6 km/h 4.8 km/h 87% 0 mm 0 W/m2
23:24 9.8 °C 8.2 °C 1026 hPa WNW 3.9 km/h 4.8 km/h 87% 0 mm 0 W/m2
23:29 9.8 °C 8.2 °C 1026.3 hPa WNW 1 km/h 3.2 km/h 87% 0 mm 0 W/m2
23:34 9.8 °C 8.2 °C 1026.3 hPa WNW 1.9 km/h 4.8 km/h 87% 0 mm 0 W/m2
23:39 9.8 °C 8.3 °C 1026.3 hPa Calm     87.5% 0 mm 0 W/m2
23:44 9.8 °C 8.3 °C 1026 hPa Calm   1.6 km/h 87.2% 0 mm 0 W/m2
23:49 9.8 °C 8.2 °C 1026 hPa Calm   1.6 km/h 87% 0 mm 0 W/m2
23:54 9.7 °C 8.2 °C 1026 hPa WNW 1.6 km/h 3.2 km/h 87% 0 mm 0 W/m2
23:59 9.7 °C 8.1 °C 1026 hPa WNW 2.1 km/h 3.2 km/h 87% 0 mm 0 W/m2
Bath Spa Weather
Compliments of Weather Underground - 2 mb